Time;durP1;ratioP1;P1;durP2;ratioP2;P2;SDS_P1;SDS_P2;PMS_P1;PMS_P2;Temp;Humidity;BMP_temperature;BMP_pressure;BME280_temperature;BME280_humidity;BME280_pressure;Samples;Min_cycle;Max_cycle;Signal;HPM_P1;HPM_P2
2021/12/27 01:03:48;;;;;;;18.52;10.52;;;7.60;99.90;;;;;;4724790;29;20290;-86
2021/12/27 01:23:29;;;;;;;9.38;8.48;;;7.60;99.90;;;;;;4818425;29;20700;-85
2021/12/27 01:25:57;;;;;;;14.70;11.75;;;7.60;99.90;;;;;;4831795;29;20237;-85
2021/12/27 01:28:24;;;;;;;11.43;10.32;;;7.60;99.90;;;;;;4908794;29;20578;-85
2021/12/27 01:30:50;;;;;;;10.98;9.63;;;7.60;99.90;;;;;;4987602;28;20230;-86
2021/12/27 01:33:19;;;;;;;11.85;10.25;;;7.60;99.90;;;;;;5033449;28;20209;-87
2021/12/27 01:35:47;;;;;;;13.27;9.85;;;7.60;99.90;;;;;;5033911;28;20203;-86
2021/12/27 01:38:15;;;;;;;14.88;8.65;;;7.50;99.90;;;;;;5033739;28;20210;-86
2021/12/27 01:40:45;;;;;;;10.40;9.45;;;7.50;99.90;;;;;;5033164;28;20325;-86
2021/12/27 01:43:14;;;;;;;8.60;7.70;;;7.50;99.90;;;;;;5042585;28;20636;-86
2021/12/27 01:45:44;;;;;;;10.18;8.90;;;7.40;99.90;;;;;;5035116;28;20230;-86
2021/12/27 01:48:11;;;;;;;10.23;8.50;;;7.40;99.90;;;;;;5034788;28;20203;-86
2021/12/27 01:50:40;;;;;;;12.23;10.00;;;7.40;99.90;;;;;;5033739;28;20226;-86
2021/12/27 01:53:08;;;;;;;9.75;8.75;;;7.30;99.90;;;;;;5033809;28;20683;-86
2021/12/27 01:55:35;;;;;;;11.00;8.77;;;7.30;99.90;;;;;;5033512;28;20316;-88
2021/12/27 01:58:04;;;;;;;8.80;7.53;;;7.10;99.90;;;;;;5033131;28;20217;-88
2021/12/27 02:00:32;;;;;;;10.82;9.20;;;7.10;99.90;;;;;;5033018;28;20226;-89
2021/12/27 02:02:58;;;;;;;10.02;8.48;;;7.10;99.90;;;;;;5033470;28;20202;-88
2021/12/27 02:05:25;;;;;;;10.50;9.32;;;7.10;99.90;;;;;;5033176;28;20224;-88
2021/12/27 02:07:52;;;;;;;14.88;9.82;;;7.10;99.90;;;;;;5032227;28;20221;-88
2021/12/27 02:10:19;;;;;;;9.52;8.35;;;7.10;99.90;;;;;;5033178;28;20612;-87
2021/12/27 02:12:46;;;;;;;9.48;8.00;;;7.00;99.90;;;;;;5033206;28;20264;-86
2021/12/27 02:15:14;;;;;;;9.15;8.25;;;7.10;99.90;;;;;;5033012;28;20702;-87
2021/12/27 02:17:43;;;;;;;12.13;9.05;;;7.10;99.90;;;;;;5033192;28;20233;-87
2021/12/27 02:20:17;;;;;;;10.82;8.35;;;7.20;99.90;;;;;;5032370;28;20743;-88
2021/12/27 02:22:44;;;;;;;11.52;8.65;;;7.30;99.90;;;;;;5033631;28;20191;-87
2021/12/27 02:25:13;;;;;;;9.27;7.85;;;7.10;99.90;;;;;;5034532;28;20256;-89
2021/12/27 02:27:40;;;;;;;9.13;7.88;;;7.00;99.90;;;;;;5034274;28;20671;-87
2021/12/27 02:30:09;;;;;;;7.88;7.18;;;7.10;99.90;;;;;;5032341;28;20234;-86
2021/12/27 02:32:46;;;;;;;8.77;6.75;;;7.20;99.90;;;;;;5033903;28;20210;-89
2021/12/27 02:35:17;;;;;;;9.15;8.05;;;7.10;99.90;;;;;;5033182;28;20206;-89
2021/12/27 02:37:44;;;;;;;10.02;7.75;;;7.00;99.90;;;;;;5032855;28;20206;-89
2021/12/27 02:40:11;;;;;;;10.40;7.72;;;7.00;99.90;;;;;;5032485;28;20234;-83
2021/12/27 02:42:53;;;;;;;8.63;7.72;;;7.00;99.90;;;;;;5033648;28;20210;-89
2021/12/27 02:45:21;;;;;;;8.68;7.60;;;7.10;99.90;;;;;;5059124;28;20640;-89
2021/12/27 02:47:47;;;;;;;7.93;7.13;;;7.10;99.90;;;;;;5065719;28;20202;-89
2021/12/27 02:50:16;;;;;;;11.00;7.65;;;7.10;99.90;;;;;;5061377;28;20224;-89
2021/12/27 02:52:43;;;;;;;8.43;6.75;;;7.00;99.90;;;;;;5061786;28;20204;-87
2021/12/27 02:55:12;;;;;;;7.10;6.47;;;7.00;99.90;;;;;;5057800;28;20791;-89
2021/12/27 02:57:39;;;;;;;8.48;7.18;;;7.00;99.90;;;;;;5044567;28;20203;-89
2021/12/27 03:00:11;;;;;;;7.03;6.03;;;7.00;99.90;;;;;;5058902;28;20308;-85
2021/12/27 03:02:38;;;;;;;8.23;6.78;;;7.00;99.90;;;;;;5064718;28;20194;-89
2021/12/27 03:05:05;;;;;;;7.40;6.45;;;7.00;99.90;;;;;;5080080;28;20184;-85
2021/12/27 03:07:33;;;;;;;6.53;5.95;;;7.00;99.90;;;;;;5087583;28;20205;-84
2021/12/27 03:10:00;;;;;;;8.10;6.68;;;7.10;99.90;;;;;;5085298;28;20198;-83
2021/12/27 03:12:26;;;;;;;7.85;6.35;;;7.20;99.90;;;;;;5074219;28;20253;-88
2021/12/27 03:14:53;;;;;;;6.68;6.07;;;7.20;99.90;;;;;;5052079;28;20236;-87
2021/12/27 03:17:20;;;;;;;7.10;6.38;;;7.00;99.90;;;;;;5060023;28;20917;-88
2021/12/27 03:19:47;;;;;;;8.70;6.68;;;7.10;99.90;;;;;;5060366;28;20225;-88
2021/12/27 03:22:13;;;;;;;7.45;6.35;;;7.00;99.90;;;;;;5063414;28;20631;-88
2021/12/27 03:24:41;;;;;;;8.82;6.82;;;7.00;99.90;;;;;;5061050;28;20221;-89
2021/12/27 03:27:08;;;;;;;11.18;7.13;;;7.00;99.90;;;;;;5054440;28;20216;-88
2021/12/27 03:29:35;;;;;;;6.78;6.13;;;6.90;99.90;;;;;;5060753;28;20228;-88
2021/12/27 03:32:02;;;;;;;6.35;5.75;;;7.00;99.90;;;;;;5060555;28;20206;-89
2021/12/27 03:34:41;;;;;;;10.10;7.82;;;6.90;99.90;;;;;;5062056;28;20285;-89
2021/12/27 03:37:09;;;;;;;6.30;4.78;;;7.00;99.90;;;;;;5050107;28;20223;-88
2021/12/27 03:39:36;;;;;;;6.07;5.40;;;7.00;99.90;;;;;;5060640;28;20307;-88
2021/12/27 03:42:04;;;;;;;5.10;4.60;;;7.10;99.90;;;;;;5060930;28;20201;-88
2021/12/27 03:44:31;;;;;;;5.55;5.03;;;7.20;99.90;;;;;;5059934;28;20202;-89
2021/12/27 03:46:58;;;;;;;5.15;4.50;;;7.30;99.90;;;;;;5063863;28;20221;-89
2021/12/27 03:49:24;;;;;;;6.70;6.10;;;7.30;99.90;;;;;;5060657;28;20228;-88
2021/12/27 03:51:51;;;;;;;5.80;5.40;;;7.30;99.90;;;;;;5056514;28;20663;-88
2021/12/27 03:54:18;;;;;;;5.43;4.88;;;7.40;99.90;;;;;;5052918;28;20644;-85
2021/12/27 03:56:45;;;;;;;5.10;4.65;;;7.40;99.90;;;;;;5063116;28;20347;-85
2021/12/27 03:59:22;;;;;;;5.55;4.85;;;7.40;99.90;;;;;;5065245;28;20221;-86
2021/12/27 04:01:49;;;;;;;4.82;4.43;;;7.50;99.90;;;;;;5067694;28;20214;-86
2021/12/27 04:04:17;;;;;;;6.10;5.15;;;7.50;99.90;;;;;;5066581;28;20212;-86
2021/12/27 04:06:43;;;;;;;4.55;4.13;;;7.50;99.90;;;;;;5066314;28;20237;-86
2021/12/27 04:09:10;;;;;;;4.60;4.20;;;7.30;99.90;;;;;;5064824;28;20221;-86
2021/12/27 04:11:37;;;;;;;5.32;4.82;;;7.30;99.90;;;;;;5052834;28;20216;-86
2021/12/27 04:14:04;;;;;;;6.05;4.75;;;7.30;99.90;;;;;;5052143;28;20580;-86
2021/12/27 04:16:32;;;;;;;6.65;4.43;;;7.30;99.90;;;;;;5052179;28;20209;-89
2021/12/27 04:18:59;;;;;;;4.68;4.28;;;7.30;99.90;;;;;;5052590;28;20198;-88
2021/12/27 04:21:25;;;;;;;4.15;3.85;;;7.30;99.90;;;;;;5053120;28;20217;-87
2021/12/27 04:23:52;;;;;;;4.40;4.00;;;7.30;99.90;;;;;;5053661;28;20209;-88
2021/12/27 04:26:19;;;;;;;4.80;4.40;;;7.30;99.90;;;;;;5053121;28;20230;-90
2021/12/27 04:28:46;;;;;;;4.28;3.60;;;7.10;99.90;;;;;;5052869;28;20671;-88
2021/12/27 04:31:14;;;;;;;5.50;4.47;;;7.10;99.90;;;;;;5052841;28;20222;-89
2021/12/27 04:33:43;;;;;;;4.43;3.60;;;6.90;99.90;;;;;;5055323;28;20205;-85
2021/12/27 04:36:10;;;;;;;4.43;3.50;;;7.00;99.90;;;;;;5055739;28;20296;-85
2021/12/27 04:38:38;;;;;;;4.15;3.75;;;7.00;99.90;;;;;;5055572;28;20202;-85
2021/12/27 04:41:06;;;;;;;4.70;4.30;;;7.10;99.90;;;;;;5055444;28;20218;-85
2021/12/27 04:43:33;;;;;;;4.00;3.55;;;7.10;99.90;;;;;;5055385;28;20351;-89
2021/12/27 04:46:00;;;;;;;6.38;4.85;;;7.20;99.90;;;;;;5054864;28;20202;-88
2021/12/27 04:48:27;;;;;;;4.10;3.58;;;7.30;99.90;;;;;;5054484;28;20232;-88
2021/12/27 04:50:55;;;;;;;4.03;3.63;;;7.40;99.90;;;;;;5054656;28;20225;-88
2021/12/27 04:53:22;;;;;;;4.07;3.70;;;7.30;99.90;;;;;;5054597;28;20216;-87
2021/12/27 04:55:49;;;;;;;5.07;3.30;;;7.40;99.90;;;;;;5054703;28;20216;-88
2021/12/27 04:58:18;;;;;;;5.15;4.70;;;7.30;99.90;;;;;;5054573;28;20718;-88
2021/12/27 05:00:46;;;;;;;4.63;3.88;;;7.30;99.90;;;;;;5054036;28;20684;-88
2021/12/27 05:03:12;;;;;;;3.00;2.80;;;7.30;99.90;;;;;;5054634;28;20201;-87
2021/12/27 05:05:42;;;;;;;4.07;3.67;;;7.30;99.90;;;;;;5054626;28;20686;-88
2021/12/27 05:08:10;;;;;;;4.07;3.67;;;7.30;99.90;;;;;;5054201;28;20236;-88
2021/12/27 05:10:37;;;;;;;5.25;3.00;;;7.20;99.90;;;;;;5054084;28;20229;-86
2021/12/27 05:13:05;;;;;;;4.13;3.47;;;7.20;99.90;;;;;;5054159;28;20209;-86
2021/12/27 05:15:32;;;;;;;4.35;3.95;;;7.30;99.90;;;;;;5053762;28;20202;-87
2021/12/27 05:17:59;;;;;;;3.85;3.53;;;7.30;99.90;;;;;;5054042;28;20292;-87
2021/12/27 05:20:25;;;;;;;4.88;4.28;;;7.40;99.90;;;;;;5054124;28;20300;-87
2021/12/27 05:22:54;;;;;;;4.00;3.65;;;7.40;99.90;;;;;;5054380;28;20235;-86
2021/12/27 05:25:23;;;;;;;4.97;3.83;;;7.40;99.90;;;;;;5054164;28;20241;-85
2021/12/27 05:27:50;;;;;;;3.58;3.28;;;7.30;99.90;;;;;;5054165;28;20221;-85
2021/12/27 05:30:17;;;;;;;3.92;3.55;;;7.40;99.90;;;;;;5054437;28;20585;-85
2021/12/27 05:32:44;;;;;;;4.85;3.55;;;7.40;99.90;;;;;;5054252;28;20734;-85
2021/12/27 05:35:13;;;;;;;5.75;5.35;;;7.30;99.90;;;;;;5054141;28;20251;-85
2021/12/27 05:37:41;;;;;;;3.22;2.90;;;7.30;99.90;;;;;;5054285;28;20567;-85
2021/12/27 05:40:11;;;;;;;3.50;3.20;;;7.20;99.90;;;;;;5054160;28;20237;-85
2021/12/27 05:42:39;;;;;;;5.25;3.00;;;7.20;99.90;;;;;;5054032;28;20667;-85
2021/12/27 05:45:08;;;;;;;4.50;3.70;;;7.20;99.90;;;;;;5054052;28;20296;-85
2021/12/27 05:47:35;;;;;;;4.20;3.90;;;7.20;99.90;;;;;;5053805;28;20232;-85
2021/12/27 05:50:02;;;;;;;4.00;3.60;;;7.20;99.90;;;;;;5054034;28;20309;-85
2021/12/27 05:52:29;;;;;;;3.75;3.45;;;7.30;99.90;;;;;;5053992;28;20642;-84
2021/12/27 05:54:56;;;;;;;4.22;3.10;;;7.30;99.90;;;;;;5053744;28;20206;-85
2021/12/27 05:57:23;;;;;;;3.22;3.03;;;7.30;99.90;;;;;;5053837;28;20289;-85
2021/12/27 05:59:51;;;;;;;4.10;3.60;;;7.30;99.90;;;;;;5053685;28;20232;-85
2021/12/27 06:02:18;;;;;;;3.30;3.10;;;7.40;99.90;;;;;;5053801;28;20213;-88
2021/12/27 06:04:45;;;;;;;3.65;3.35;;;7.40;99.90;;;;;;5053968;28;20293;-85
2021/12/27 06:07:11;;;;;;;4.18;2.85;;;7.40;99.90;;;;;;5053523;28;20225;-85
2021/12/27 06:09:38;;;;;;;3.88;3.58;;;7.40;99.90;;;;;;5053715;28;20243;-84
2021/12/27 06:12:06;;;;;;;4.47;4.00;;;7.40;99.90;;;;;;5053390;28;20205;-85
2021/12/27 06:14:33;;;;;;;3.60;3.30;;;7.40;99.90;;;;;;5053002;28;20213;-85
2021/12/27 06:17:01;;;;;;;4.80;4.13;;;7.30;99.90;;;;;;5053323;28;20213;-85
2021/12/27 06:19:31;;;;;;;4.50;3.42;;;7.20;99.90;;;;;;5053331;28;20230;-86
2021/12/27 06:21:58;;;;;;;3.67;3.42;;;7.10;99.90;;;;;;5053621;28;20206;-86
2021/12/27 06:24:25;;;;;;;4.93;4.35;;;7.00;99.90;;;;;;5053480;28;20221;-87
2021/12/27 06:26:52;;;;;;;4.53;4.13;;;6.90;99.90;;;;;;5052756;28;20244;-87
2021/12/27 06:29:19;;;;;;;4.32;3.97;;;6.80;99.90;;;;;;5052951;28;20232;-87
2021/12/27 06:31:46;;;;;;;4.55;4.07;;;6.70;99.90;;;;;;5052850;28;20209;-86
2021/12/27 06:34:14;;;;;;;7.03;4.50;;;6.70;99.90;;;;;;5053088;28;20678;-88
2021/12/27 06:36:41;;;;;;;5.07;4.68;;;6.50;99.90;;;;;;5052498;28;20263;-87
2021/12/27 06:39:09;;;;;;;5.57;5.13;;;6.30;99.90;;;;;;5052615;28;20679;-87
2021/12/27 06:41:36;;;;;;;6.43;5.70;;;6.20;99.90;;;;;;5052532;28;20627;-86
2021/12/27 06:44:03;;;;;;;5.25;4.85;;;6.20;99.90;;;;;;5052450;28;20217;-87
2021/12/27 06:46:29;;;;;;;5.63;5.13;;;6.20;99.90;;;;;;5052081;28;20205;-87
2021/12/27 06:48:56;;;;;;;6.50;4.70;;;6.20;99.90;;;;;;5052635;28;20213;-87
2021/12/27 06:51:24;;;;;;;7.15;4.85;;;6.20;99.90;;;;;;5052369;28;20213;-87
2021/12/27 06:53:51;;;;;;;5.07;4.57;;;6.30;99.90;;;;;;5052155;28;20690;-87
2021/12/27 06:56:18;;;;;;;6.10;5.57;;;6.30;99.90;;;;;;5052393;28;20235;-86
2021/12/27 06:58:45;;;;;;;5.32;4.82;;;6.30;99.90;;;;;;5052360;28;20220;-87
2021/12/27 07:01:11;;;;;;;6.70;6.05;;;6.30;99.90;;;;;;5052084;28;20687;-87
2021/12/27 07:03:38;;;;;;;5.22;4.78;;;6.20;99.90;;;;;;5052229;28;20686;-86
2021/12/27 07:06:05;;;;;;;6.40;5.80;;;6.10;99.90;;;;;;5052170;28;20217;-87
2021/12/27 07:08:33;;;;;;;6.60;5.72;;;6.10;99.90;;;;;;5052393;28;20691;-87
2021/12/27 07:11:00;;;;;;;6.85;6.25;;;6.10;99.90;;;;;;5051783;28;20734;-87
2021/12/27 07:13:27;;;;;;;6.53;5.78;;;6.10;99.90;;;;;;5052294;28;20214;-87
2021/12/27 07:15:53;;;;;;;7.25;5.35;;;6.10;99.90;;;;;;5052047;28;20210;-87
2021/12/27 07:18:23;;;;;;;6.22;5.05;;;6.10;99.90;;;;;;5052249;28;20206;-87
2021/12/27 07:20:50;;;;;;;6.88;6.13;;;6.10;99.90;;;;;;5051989;28;20229;-88
2021/12/27 07:23:16;;;;;;;7.93;6.80;;;6.10;99.90;;;;;;5052884;28;20267;-89
2021/12/27 07:25:45;;;;;;;6.53;5.85;;;6.10;99.90;;;;;;5052670;28;20606;-89
2021/12/27 07:28:11;;;;;;;7.05;6.47;;;6.10;99.90;;;;;;5054283;28;20641;-88
2021/12/27 07:30:38;;;;;;;8.85;6.00;;;6.10;99.90;;;;;;5053811;28;20236;-88
2021/12/27 07:33:05;;;;;;;6.28;5.78;;;6.10;99.90;;;;;;5052387;28;20210;-88
2021/12/27 07:35:32;;;;;;;6.70;6.10;;;6.20;99.90;;;;;;5052934;28;20213;-89
2021/12/27 07:38:00;;;;;;;8.77;7.45;;;6.20;99.90;;;;;;5052648;28;20573;-88
2021/12/27 07:40:27;;;;;;;7.78;6.95;;;6.20;99.90;;;;;;5051762;28;20279;-88
2021/12/27 07:42:55;;;;;;;8.45;7.65;;;6.20;99.90;;;;;;5052281;28;20213;-89
2021/12/27 07:45:22;;;;;;;7.38;6.68;;;6.30;99.90;;;;;;5053233;28;20213;-88
2021/12/27 07:47:49;;;;;;;10.77;8.00;;;6.30;99.90;;;;;;5052467;28;20229;-87
2021/12/27 07:50:15;;;;;;;7.57;6.88;;;6.30;99.90;;;;;;5051879;28;20217;-88
2021/12/27 07:52:42;;;;;;;8.55;6.57;;;6.30;99.90;;;;;;5051983;28;20697;-88
2021/12/27 07:55:09;;;;;;;7.35;6.60;;;6.40;99.90;;;;;;5051853;28;20228;-89
2021/12/27 07:57:36;;;;;;;7.65;6.85;;;6.40;99.90;;;;;;5051848;28;20729;-89
2021/12/27 08:00:07;;;;;;;7.57;6.97;;;6.40;99.90;;;;;;5051682;28;20222;-89
2021/12/27 08:02:34;;;;;;;9.02;6.57;;;6.40;99.90;;;;;;5051756;28;20678;-88
2021/12/27 08:05:01;;;;;;;8.95;8.10;;;6.50;99.90;;;;;;5051660;28;20209;-88
2021/12/27 08:07:28;;;;;;;12.55;8.93;;;6.40;99.90;;;;;;5055346;28;20706;-89
2021/12/27 08:09:54;;;;;;;10.18;7.22;;;6.40;99.90;;;;;;5055479;28;20930;-89
2021/12/27 08:12:21;;;;;;;8.93;7.03;;;6.40;99.90;;;;;;5055247;28;20205;-89
2021/12/27 08:14:49;;;;;;;8.48;6.90;;;6.40;99.90;;;;;;5054904;28;20593;-89
2021/12/27 08:17:17;;;;;;;7.45;6.65;;;6.50;99.90;;;;;;5055233;28;20296;-88
2021/12/27 08:19:45;;;;;;;8.93;6.70;;;6.60;99.90;;;;;;5055289;28;20236;-88
2021/12/27 08:22:12;;;;;;;7.82;7.13;;;6.60;99.90;;;;;;5055020;28;20212;-89
2021/12/27 08:24:39;;;;;;;8.30;7.50;;;6.70;99.90;;;;;;5054752;28;20224;-88
2021/12/27 08:27:06;;;;;;;9.65;7.80;;;6.80;99.90;;;;;;5055196;28;20206;-88
2021/12/27 08:29:33;;;;;;;13.15;11.68;;;6.80;99.90;;;;;;5055188;28;20725;-87
2021/12/27 08:32:00;;;;;;;13.00;11.82;;;6.90;99.90;;;;;;5054695;28;20213;-89
2021/12/27 08:34:29;;;;;;;11.48;10.38;;;7.00;99.90;;;;;;5054647;28;20683;-88
2021/12/27 08:36:56;;;;;;;9.73;8.82;;;7.00;99.90;;;;;;5055063;28;20220;-88
2021/12/27 08:39:22;;;;;;;10.45;8.52;;;7.00;99.90;;;;;;5054921;28;20237;-88
2021/12/27 08:41:49;;;;;;;8.20;6.97;;;7.00;99.90;;;;;;5061765;28;20194;-89
2021/12/27 08:44:16;;;;;;;8.35;7.18;;;7.00;99.90;;;;;;5064056;28;20658;-89
2021/12/27 08:46:46;;;;;;;8.30;6.78;;;7.00;99.90;;;;;;5065227;28;20225;-88
2021/12/27 08:49:13;;;;;;;7.95;6.18;;;7.00;99.90;;;;;;5065317;28;20217;-89
2021/12/27 08:51:41;;;;;;;9.85;6.57;;;7.00;99.90;;;;;;5076762;28;20196;-84
2021/12/27 08:54:08;;;;;;;8.73;7.82;;;7.00;99.90;;;;;;5080070;28;20209;-82
2021/12/27 08:56:36;;;;;;;7.10;6.50;;;7.10;99.90;;;;;;5081285;28;20212;-84
2021/12/27 08:59:03;;;;;;;9.57;6.30;;;7.10;99.90;;;;;;5082325;28;20205;-84
2021/12/27 09:01:29;;;;;;;7.43;6.68;;;7.20;99.90;;;;;;5081370;28;20201;-83
2021/12/27 09:03:56;;;;;;;6.28;5.72;;;7.30;99.90;;;;;;5083168;28;20268;-84
2021/12/27 09:06:23;;;;;;;5.35;4.85;;;7.40;99.90;;;;;;5081266;28;20630;-84
2021/12/27 09:13:00;;;;;;;6.20;5.60;;;7.60;99.90;;;;;;5031430;28;20210;-88
2021/12/27 09:16:05;;;;;;;5.13;4.50;;;7.60;99.90;;;;;;5032083;28;20214;-88
2021/12/27 09:25:28;;;;;;;6.55;5.32;;;7.80;99.90;;;;;;5033217;28;20200;-87
2021/12/27 09:31:18;;;;;;;5.65;4.57;;;7.90;99.90;;;;;;5059761;28;20216;-85
2021/12/27 09:33:48;;;;;;;4.90;4.50;;;7.80;99.90;;;;;;5011109;28;20214;-85
2021/12/27 09:36:27;;;;;;;6.20;5.70;;;7.70;99.90;;;;;;5034650;28;20205;-84
2021/12/27 09:38:55;;;;;;;4.57;4.15;;;7.80;99.90;;;;;;5062336;28;20704;-84
2021/12/27 09:41:22;;;;;;;6.10;5.47;;;7.90;99.90;;;;;;5059386;28;20201;-84
2021/12/27 09:43:49;;;;;;;4.63;4.18;;;7.90;99.90;;;;;;5064314;28;20205;-84
2021/12/27 09:46:18;;;;;;;5.13;4.63;;;7.90;99.90;;;;;;5058285;28;20201;-85
2021/12/27 09:48:45;;;;;;;4.90;4.47;;;7.90;99.90;;;;;;5058820;28;20221;-84
2021/12/27 09:51:12;;;;;;;5.18;4.50;;;7.90;99.90;;;;;;5061597;28;20250;-84
2021/12/27 09:53:39;;;;;;;5.20;4.38;;;7.90;99.90;;;;;;5061808;28;20574;-85
2021/12/27 09:56:09;;;;;;;4.65;4.25;;;8.00;99.90;;;;;;5061843;28;20198;-84
2021/12/27 09:58:36;;;;;;;4.55;4.15;;;7.90;99.90;;;;;;5088732;22;20235;-83
2021/12/27 10:01:08;;;;;;;4.50;4.10;;;8.00;99.90;;;;;;5035705;28;20194;-84
2021/12/27 10:03:51;;;;;;;4.13;3.80;;;8.20;99.90;;;;;;5038265;28;20203;-85
2021/12/27 10:06:20;;;;;;;4.47;4.07;;;8.40;99.90;;;;;;5032055;28;20199;-85
2021/12/27 10:14:48;;;;;;;4.45;3.45;;;8.80;99.90;;;;;;5035643;28;20198;-84
2021/12/27 10:17:50;;;;;;;4.00;3.15;;;8.80;99.90;;;;;;5039881;28;20209;-86
2021/12/27 10:20:20;;;;;;;3.55;3.25;;;8.90;99.90;;;;;;5040236;28;20289;-83
2021/12/27 10:22:49;;;;;;;4.07;3.67;;;8.90;99.90;;;;;;5020920;28;20203;-85
2021/12/27 10:25:17;;;;;;;3.05;2.85;;;9.00;99.90;;;;;;5035607;28;20447;-84
2021/12/27 10:27:45;;;;;;;3.70;3.40;;;8.90;99.90;;;;;;5037623;28;20230;-82
2021/12/27 10:30:16;;;;;;;5.22;3.35;;;9.00;99.90;;;;;;5035890;28;20203;-85
2021/12/27 10:32:43;;;;;;;4.00;3.63;;;9.10;99.90;;;;;;5019574;28;20278;-85
2021/12/27 10:35:11;;;;;;;4.25;3.65;;;9.20;99.90;;;;;;5034511;28;20263;-85
2021/12/27 10:37:42;;;;;;;3.50;3.20;;;9.40;99.90;;;;;;5042880;28;20206;-84
2021/12/27 10:40:11;;;;;;;4.00;3.70;;;9.60;99.90;;;;;;5045414;28;20588;-84
2021/12/27 10:42:59;;;;;;;6.40;3.67;;;9.90;99.90;;;;;;5040703;28;20258;-83
2021/12/27 10:45:27;;;;;;;2.80;2.50;;;10.20;99.90;;;;;;5030832;28;20253;-82
2021/12/27 10:51:05;;;;;;;2.97;2.78;;;11.00;99.90;;;;;;5026667;28;20204;-82
2021/12/27 10:53:47;;;;;;;2.63;2.50;;;11.40;99.90;;;;;;5040480;28;20230;-85
2021/12/27 10:56:16;;;;;;;2.90;2.70;;;11.70;99.90;;;;;;5039262;28;20454;-85
2021/12/27 10:58:50;;;;;;;2.50;2.30;;;12.10;99.90;;;;;;5041155;28;20482;-85
2021/12/27 11:01:19;;;;;;;2.70;2.50;;;12.30;99.90;;;;;;5040210;28;20446;-85
2021/12/27 11:03:48;;;;;;;3.60;3.30;;;12.50;99.90;;;;;;5041183;28;20551;-85
2021/12/27 11:06:18;;;;;;;2.37;2.20;;;12.70;99.90;;;;;;5041682;28;20486;-85
2021/12/27 11:08:47;;;;;;;2.90;2.70;;;13.20;99.90;;;;;;5039884;28;20495;-83
2021/12/27 11:11:15;;;;;;;3.10;2.40;;;13.30;99.90;;;;;;5039862;28;20461;-82
2021/12/27 11:13:43;;;;;;;2.80;2.27;;;13.30;99.90;;;;;;5040608;28;20448;-82
2021/12/27 11:16:10;;;;;;;2.83;2.53;;;13.60;99.90;;;;;;5040721;28;20456;-82
2021/12/27 11:18:37;;;;;;;3.97;3.67;;;14.00;99.90;;;;;;5039630;28;20468;-83
2021/12/27 11:21:09;;;;;;;4.33;3.80;;;14.50;99.90;;;;;;5044711;28;20449;-84
2021/12/27 11:23:37;;;;;;;2.40;2.20;;;14.80;99.90;;;;;;5042803;28;20498;-85
2021/12/27 11:26:07;;;;;;;2.60;2.40;;;14.70;99.90;;;;;;5043579;28;20449;-83
2021/12/27 11:28:36;;;;;;;2.63;2.43;;;14.60;99.90;;;;;;5041693;28;20484;-81
2021/12/27 11:31:06;;;;;;;2.97;2.67;;;14.10;99.90;;;;;;5041378;28;20456;-82
2021/12/27 11:33:33;;;;;;;3.57;2.83;;;13.90;99.90;;;;;;5043931;28;20445;-82
2021/12/27 11:36:10;;;;;;;4.07;3.07;;;13.20;99.90;;;;;;5041840;28;20448;-84
2021/12/27 11:38:42;;;;;;;3.43;3.23;;;12.80;99.90;;;;;;5037423;28;20471;-84
2021/12/27 11:41:31;;;;;;;3.10;2.90;;;12.40;99.90;;;;;;5040795;28;20455;-85
2021/12/27 11:44:00;;;;;;;3.50;3.20;;;12.30;99.90;;;;;;5041533;28;20432;-83
2021/12/27 11:46:29;;;;;;;3.27;2.97;;;12.30;99.90;;;;;;5041381;28;20458;-84
2021/12/27 11:48:58;;;;;;;2.60;2.40;;;12.40;99.90;;;;;;5041518;28;20503;-84
2021/12/27 11:51:42;;;;;;;3.30;2.40;;;12.30;99.90;;;;;;5043750;28;20467;-84
2021/12/27 11:54:26;;;;;;;2.90;2.70;;;12.20;99.90;;;;;;5045702;28;20459;-84
2021/12/27 11:56:55;;;;;;;2.70;2.50;;;12.10;99.90;;;;;;5046186;28;20926;-82
2021/12/27 11:59:31;;;;;;;5.07;3.27;;;12.10;99.90;;;;;;5045501;28;20498;-82
2021/12/27 12:02:00;;;;;;;3.13;2.60;;;12.00;99.90;;;;;;5046555;28;20573;-85
2021/12/27 12:04:41;;;;;;;3.77;2.53;;;11.80;99.90;;;;;;5045930;28;20476;-84
2021/12/27 12:07:08;;;;;;;3.50;3.20;;;11.70;99.90;;;;;;5045473;28;20458;-84
2021/12/27 12:09:53;;;;;;;4.57;3.50;;;11.60;99.90;;;;;;5046680;28;20491;-84
2021/12/27 12:12:21;;;;;;;3.03;2.83;;;11.60;99.90;;;;;;5045405;28;20431;-83
2021/12/27 12:14:55;;;;;;;3.23;3.03;;;11.40;99.90;;;;;;5046173;28;20452;-84
2021/12/27 12:17:37;;;;;;;3.72;3.33;;;11.40;99.90;;;;;;5045808;28;20431;-83
2021/12/27 12:20:05;;;;;;;3.90;3.53;;;11.20;99.90;;;;;;5045085;28;20232;-82
2021/12/27 12:22:35;;;;;;;4.20;3.30;;;11.20;99.90;;;;;;5044973;28;20491;-84
2021/12/27 12:25:18;;;;;;;4.20;3.80;;;11.10;99.90;;;;;;5045504;28;20204;-84
2021/12/27 12:27:55;;;;;;;4.28;3.92;;;11.00;99.90;;;;;;5047481;28;20548;-84
2021/12/27 12:30:22;;;;;;;4.73;3.53;;;11.00;99.90;;;;;;5049666;28;20234;-83
2021/12/27 12:33:00;;;;;;;3.47;3.17;;;10.90;99.90;;;;;;5046473;28;20753;-84
2021/12/27 12:35:39;;;;;;;4.40;4.00;;;10.90;99.90;;;;;;5045498;28;20212;-84
2021/12/27 12:38:17;;;;;;;4.07;3.67;;;10.80;99.90;;;;;;5045555;28;20258;-83
2021/12/27 12:40:46;;;;;;;4.45;3.90;;;10.80;99.90;;;;;;5044937;28;20952;-83
2021/12/27 12:43:32;;;;;;;3.08;2.88;;;10.80;99.90;;;;;;5044533;28;20214;-84
2021/12/27 12:45:58;;;;;;;3.22;2.97;;;10.90;99.90;;;;;;5045579;28;20194;-84
2021/12/27 12:48:29;;;;;;;3.50;3.20;;;10.90;99.90;;;;;;5044927;28;20231;-84
2021/12/27 12:50:56;;;;;;;3.50;3.20;;;11.00;99.90;;;;;;5044871;28;20832;-84
2021/12/27 12:53:31;;;;;;;4.00;3.40;;;11.20;99.90;;;;;;5045010;28;20450;-84
2021/12/27 12:56:01;;;;;;;3.20;2.90;;;11.10;99.90;;;;;;5045524;28;20212;-84
2021/12/27 12:58:34;;;;;;;3.13;2.93;;;11.00;99.90;;;;;;5048391;28;20246;-82
2021/12/27 13:01:06;;;;;;;7.47;3.95;;;10.90;99.90;;;;;;5056869;28;20458;-82
2021/12/27 13:03:33;;;;;;;3.60;3.30;;;10.90;99.90;;;;;;5057830;28;20208;-82
2021/12/27 13:06:03;;;;;;;3.77;3.43;;;10.80;99.90;;;;;;5057652;28;20223;-82
2021/12/27 13:08:30;;;;;;;3.90;3.50;;;10.70;99.90;;;;;;5056244;28;20486;-83
2021/12/27 13:10:58;;;;;;;3.30;3.10;;;10.70;99.90;;;;;;5054694;28;20237;-84
2021/12/27 13:13:25;;;;;;;3.30;3.00;;;10.80;99.90;;;;;;5053438;28;20502;-84
2021/12/27 13:15:57;;;;;;;2.90;2.70;;;10.60;99.90;;;;;;5052743;28;20215;-84
2021/12/27 13:18:26;;;;;;;3.45;2.92;;;10.50;99.90;;;;;;5051568;28;20258;-83
2021/12/27 13:20:54;;;;;;;4.13;3.70;;;10.30;99.90;;;;;;5053160;28;20202;-83
2021/12/27 13:23:23;;;;;;;4.03;3.20;;;10.30;99.90;;;;;;5054378;28;20220;-83
2021/12/27 13:25:52;;;;;;;4.28;3.10;;;10.20;99.90;;;;;;5053840;28;20237;-82
2021/12/27 13:28:24;;;;;;;3.60;3.28;;;10.10;99.90;;;;;;5053295;28;20222;-84
2021/12/27 13:31:17;;;;;;;3.78;3.30;;;10.10;99.90;;;;;;5051514;28;20206;-84
2021/12/27 13:33:50;;;;;;;3.33;3.10;;;10.00;99.90;;;;;;5051967;28;20214;-84
2021/12/27 13:36:23;;;;;;;2.75;2.55;;;10.00;99.90;;;;;;5049983;28;20210;-84
2021/12/27 13:39:00;;;;;;;3.70;3.28;;;9.80;99.90;;;;;;5048710;28;20219;-84
2021/12/27 13:41:29;;;;;;;3.38;3.17;;;9.80;99.90;;;;;;5042238;28;20209;-83
2021/12/27 13:43:57;;;;;;;3.75;3.45;;;9.80;99.90;;;;;;5041985;28;20224;-84
2021/12/27 13:46:30;;;;;;;3.10;2.80;;;9.80;99.90;;;;;;5041713;28;20211;-84
2021/12/27 13:49:00;;;;;;;3.93;2.83;;;9.90;99.90;;;;;;5042121;28;20231;-83
2021/12/27 13:51:30;;;;;;;4.25;3.92;;;10.00;99.90;;;;;;5042764;28;20477;-84
2021/12/27 13:53:59;;;;;;;7.47;3.40;;;10.10;99.90;;;;;;5042043;28;20192;-84
2021/12/27 13:56:28;;;;;;;4.05;2.65;;;10.10;99.90;;;;;;5041433;28;20222;-84
2021/12/27 13:58:55;;;;;;;3.17;2.90;;;10.10;99.90;;;;;;5040006;28;20238;-84
2021/12/27 14:01:25;;;;;;;4.30;2.88;;;10.00;99.90;;;;;;5040399;28;20212;-82
2021/12/27 14:03:52;;;;;;;3.10;2.25;;;10.00;99.90;;;;;;5038929;28;20210;-84
2021/12/27 14:06:21;;;;;;;3.13;2.90;;;9.90;99.90;;;;;;5041988;28;20207;-84
2021/12/27 14:08:59;;;;;;;2.90;2.70;;;9.90;99.90;;;;;;5042485;28;20230;-83
2021/12/27 14:11:27;;;;;;;6.80;3.35;;;9.80;99.90;;;;;;5045355;28;20195;-83
2021/12/27 14:14:01;;;;;;;2.88;2.63;;;9.80;99.90;;;;;;5045427;28;20447;-84
2021/12/27 14:16:32;;;;;;;6.13;3.72;;;9.70;99.90;;;;;;5045272;28;20256;-83
2021/12/27 14:19:15;;;;;;;5.13;2.83;;;9.70;99.90;;;;;;5045523;28;20227;-83
2021/12/27 14:22:03;;;;;;;3.20;2.90;;;9.60;99.90;;;;;;5045284;28;20198;-82
2021/12/27 14:24:38;;;;;;;3.25;3.05;;;9.60;99.90;;;;;;5045478;28;20221;-83
2021/12/27 14:27:24;;;;;;;3.10;2.80;;;9.60;99.90;;;;;;5047222;28;20201;-83
2021/12/27 14:30:19;;;;;;;3.58;3.28;;;9.50;99.90;;;;;;5050301;28;20226;-82
2021/12/27 14:33:00;;;;;;;2.70;2.50;;;9.40;99.90;;;;;;5026994;28;20211;-85
2021/12/27 14:35:36;;;;;;;3.47;3.25;;;9.40;99.90;;;;;;5049320;28;20194;-82
2021/12/27 14:38:07;;;;;;;5.53;3.20;;;9.40;99.90;;;;;;5044535;28;20261;-85
2021/12/27 14:40:36;;;;;;;3.90;3.60;;;9.40;99.90;;;;;;5043240;28;20210;-83
2021/12/27 14:43:03;;;;;;;4.20;3.85;;;9.40;99.90;;;;;;5043311;28;20211;-83
2021/12/27 14:45:30;;;;;;;3.95;3.65;;;9.50;99.90;;;;;;5042257;28;20551;-86
2021/12/27 14:48:00;;;;;;;4.03;3.70;;;9.50;99.90;;;;;;5044789;28;20235;-85